createdAt,value
2019-03-10T00:00:51.679Z,9.12
2019-03-10T00:06:58.372Z,9.09
2019-03-10T00:13:04.157Z,9.09
2019-03-10T00:19:10.116Z,9.11
2019-03-10T00:25:15.958Z,9.12
2019-03-10T00:31:21.773Z,9.11
2019-03-10T00:37:27.624Z,9.08
2019-03-10T00:44:13.869Z,9.06
2019-03-10T00:51:23.564Z,9.00
2019-03-10T00:57:29.772Z,9.02
2019-03-10T01:03:35.535Z,9.02
2019-03-10T01:09:41.670Z,9.02
2019-03-10T01:15:48.094Z,9.04
2019-03-10T01:21:54.709Z,9.06
2019-03-10T01:28:00.522Z,9.06
2019-03-10T01:34:53.766Z,9.06
2019-03-10T01:40:59.510Z,9.08
2019-03-10T01:47:05.516Z,9.08
2019-03-10T01:53:12.091Z,9.08
2019-03-10T01:59:17.904Z,9.08
2019-03-10T02:05:23.765Z,9.07
2019-03-10T02:11:30.149Z,9.09
2019-03-10T02:17:35.979Z,9.11
2019-03-10T02:23:41.934Z,9.11
2019-03-10T02:29:47.699Z,9.15
2019-03-10T02:35:53.534Z,9.15
2019-03-10T02:41:59.350Z,9.17
2019-03-10T02:48:05.345Z,9.12
2019-03-10T02:54:11.339Z,9.12
2019-03-10T03:00:17.490Z,9.12
2019-03-10T03:06:23.333Z,9.09
2019-03-10T03:12:29.174Z,9.08
2019-03-10T03:18:35.625Z,9.06
2019-03-10T03:24:41.340Z,9.03
2019-03-10T03:30:47.458Z,9.01
2019-03-10T03:36:53.361Z,8.96
2019-03-10T03:42:59.270Z,8.94
2019-03-10T03:49:05.155Z,8.90
2019-03-10T03:55:11.281Z,8.85
2019-03-10T04:01:24.326Z,8.81
2019-03-10T04:07:30.106Z,8.75
2019-03-10T04:13:35.937Z,8.70
2019-03-10T04:19:41.695Z,8.66
2019-03-10T04:25:47.406Z,8.62
2019-03-10T04:31:53.169Z,8.66
2019-03-10T04:37:58.889Z,8.64
2019-03-10T04:44:04.629Z,8.60
2019-03-10T04:50:10.421Z,8.52
2019-03-10T04:56:38.056Z,8.36
2019-03-10T05:02:43.975Z,8.33
2019-03-10T05:08:49.821Z,8.38
2019-03-10T05:14:55.563Z,8.37
2019-03-10T05:21:01.410Z,8.41
2019-03-10T05:27:07.230Z,8.38
2019-03-10T05:33:13.176Z,8.34
2019-03-10T05:39:19.352Z,8.33
2019-03-10T05:45:25.399Z,8.39
2019-03-10T05:51:31.483Z,8.29
2019-03-10T05:57:37.643Z,8.33
2019-03-10T06:03:43.598Z,8.35
2019-03-10T06:09:49.477Z,8.37
2019-03-10T06:15:55.414Z,8.20
2019-03-10T06:22:01.443Z,8.16
2019-03-10T06:28:07.171Z,8.25
2019-03-10T06:34:12.971Z,8.27
2019-03-10T06:40:18.759Z,8.27
2019-03-10T06:46:24.487Z,8.24
2019-03-10T06:52:30.539Z,8.17
2019-03-10T06:58:36.655Z,8.11
2019-03-10T07:04:42.643Z,8.16
2019-03-10T07:10:48.390Z,8.13
2019-03-10T07:16:54.451Z,8.11
2019-03-10T07:23:00.179Z,7.97
2019-03-10T07:29:20.185Z,7.96
2019-03-10T07:35:43.316Z,7.86
2019-03-10T07:42:09.654Z,7.83
2019-03-10T07:48:37.611Z,7.72
2019-03-10T07:55:08.987Z,7.88
2019-03-10T08:01:32.687Z,7.74
2019-03-10T08:08:03.489Z,7.78
2019-03-10T08:14:37.471Z,7.66
2019-03-10T08:20:55.460Z,7.92
2019-03-10T08:27:32.725Z,8.01
2019-03-10T08:33:54.561Z,7.97
2019-03-10T08:40:07.965Z,7.88
2019-03-10T08:46:22.957Z,8.17
2019-03-10T08:52:53.113Z,8.26
2019-03-10T08:59:11.549Z,8.37
2019-03-10T09:05:39.388Z,8.61
2019-03-10T09:12:03.380Z,8.79
2019-03-10T09:18:34.155Z,8.88
2019-03-10T09:25:05.569Z,8.74
2019-03-10T09:31:39.473Z,8.67
2019-03-10T09:38:16.999Z,8.74
2019-03-10T09:44:53.478Z,9.17
2019-03-10T09:51:18.623Z,9.81
2019-03-10T09:57:43.325Z,10.23
2019-03-10T10:04:00.377Z,10.58
2019-03-10T10:10:19.223Z,10.66
2019-03-10T10:16:55.928Z,10.75
2019-03-10T10:23:23.551Z,10.99
2019-03-10T10:29:40.918Z,11.29
2019-03-10T10:36:14.663Z,11.47
2019-03-10T10:42:47.030Z,11.51
2019-03-10T10:49:04.800Z,11.97
2019-03-10T10:55:27.210Z,12.48
2019-03-10T11:01:50.736Z,12.71
2019-03-10T11:08:21.429Z,12.98
2019-03-10T11:14:34.896Z,13.21
2019-03-10T11:21:05.719Z,13.35
2019-03-10T11:27:17.157Z,13.33
2019-03-10T11:33:47.714Z,13.15
2019-03-10T11:40:11.090Z,12.71
2019-03-10T11:46:33.051Z,12.57
2019-03-10T11:52:53.987Z,12.68
2019-03-10T11:59:13.565Z,12.54
2019-03-10T12:05:27.821Z,12.34
2019-03-10T12:11:34.232Z,12.31
2019-03-10T12:17:39.980Z,12.42
2019-03-10T12:23:46.033Z,12.47
2019-03-10T12:29:51.848Z,12.36
2019-03-10T12:35:58.336Z,12.32
2019-03-10T12:42:04.118Z,12.41
2019-03-10T12:48:09.899Z,12.46
2019-03-10T12:54:15.626Z,12.36
2019-03-10T13:00:21.374Z,12.13
2019-03-10T13:06:27.147Z,11.79
2019-03-10T13:12:32.885Z,11.50
2019-03-10T13:18:38.593Z,11.27
2019-03-10T13:24:44.513Z,11.45
2019-03-10T13:30:50.299Z,11.52
2019-03-10T13:36:56.092Z,11.54
2019-03-10T13:43:02.045Z,11.35
2019-03-10T13:49:07.835Z,11.12
2019-03-10T13:55:13.676Z,11.20
2019-03-10T14:01:19.478Z,11.21
2019-03-10T14:07:25.276Z,11.23
2019-03-10T14:13:30.996Z,11.19
2019-03-10T14:19:37.024Z,11.12
2019-03-10T14:25:43.311Z,10.93
2019-03-10T14:31:49.107Z,10.62
2019-03-10T14:37:55.025Z,10.58
2019-03-10T14:44:00.797Z,10.26
2019-03-10T14:50:07.217Z,10.15
2019-03-10T14:56:13.011Z,10.01
2019-03-10T15:02:18.799Z,9.89
2019-03-10T15:08:24.568Z,9.73
2019-03-10T15:14:30.381Z,9.69
2019-03-10T15:20:36.131Z,9.60
2019-03-10T15:26:45.554Z,9.55
2019-03-10T15:32:49.494Z,9.49
2019-03-10T15:38:55.279Z,9.41
2019-03-10T15:45:01.259Z,9.41
2019-03-10T15:51:07.577Z,9.30
2019-03-10T16:09:47.153Z,8.84
2019-03-10T16:15:53.144Z,8.70
2019-03-10T16:22:01.815Z,8.41
2019-03-10T16:28:07.746Z,8.04
2019-03-10T16:34:13.465Z,7.78
2019-03-10T16:40:19.358Z,7.67
2019-03-10T16:46:25.107Z,7.37
2019-03-10T16:52:31.601Z,7.30
2019-03-10T16:58:37.557Z,7.16
2019-03-10T17:04:43.526Z,7.01
2019-03-10T17:10:49.382Z,6.90
2019-03-10T17:16:55.107Z,6.83
2019-03-10T17:23:00.864Z,6.74
2019-03-10T17:29:06.690Z,6.82
2019-03-10T17:35:12.543Z,6.82
2019-03-10T17:41:18.315Z,6.79
2019-03-10T17:47:26.928Z,6.89
2019-03-10T17:53:31.731Z,6.90
2019-03-10T17:59:37.556Z,6.96
2019-03-10T18:05:43.491Z,6.91
2019-03-10T18:11:49.453Z,6.98
2019-03-10T18:17:55.339Z,6.98
2019-03-10T18:24:01.073Z,7.04
2019-03-10T18:30:08.826Z,7.11
2019-03-10T18:36:14.693Z,6.95
2019-03-10T18:42:20.517Z,6.69
2019-03-10T18:48:26.333Z,6.42
2019-03-10T18:54:32.085Z,6.33
2019-03-10T19:00:37.897Z,6.16
2019-03-10T19:06:44.343Z,6.08
2019-03-10T19:12:50.254Z,5.98
2019-03-10T19:18:56.031Z,5.84
2019-03-10T19:25:01.834Z,5.79
2019-03-10T19:37:25.107Z,5.72
2019-03-10T19:43:30.864Z,5.75
2019-03-10T19:49:36.820Z,5.85
2019-03-10T19:55:42.606Z,6.03
2019-03-10T20:01:48.441Z,6.16
2019-03-10T20:07:54.363Z,6.23
2019-03-10T20:14:01.188Z,6.13
2019-03-10T20:20:09.552Z,5.56
2019-03-10T20:26:15.446Z,4.64
2019-03-10T20:32:21.259Z,4.42
2019-03-10T20:38:27.335Z,4.33
2019-03-10T20:44:33.168Z,4.26
2019-03-10T20:50:39.041Z,4.23
2019-03-10T20:56:44.827Z,4.14
2019-03-10T21:02:50.619Z,4.10
2019-03-10T21:08:56.583Z,3.97
2019-03-10T21:15:03.068Z,3.82
2019-03-10T21:21:09.173Z,3.75
2019-03-10T21:27:15.835Z,3.84
2019-03-10T21:33:22.557Z,3.83
2019-03-10T21:39:34.625Z,3.83
2019-03-10T21:45:36.834Z,3.88
2019-03-10T21:51:43.131Z,3.93
2019-03-10T21:57:49.287Z,3.92
2019-03-10T22:03:55.243Z,3.94
2019-03-10T22:10:01.678Z,3.99
2019-03-10T22:16:07.886Z,4.02
2019-03-10T22:22:13.877Z,4.13
2019-03-10T22:28:20.020Z,4.18
2019-03-10T22:34:25.976Z,4.14
2019-03-10T22:40:31.781Z,4.08
2019-03-10T22:46:37.494Z,4.04
2019-03-10T22:52:43.477Z,4.08
2019-03-10T22:58:49.870Z,4.13
2019-03-10T23:04:55.764Z,4.24
2019-03-10T23:11:01.689Z,4.39
2019-03-10T23:23:45.431Z,4.63
2019-03-10T23:29:51.348Z,4.80
2019-03-10T23:35:57.187Z,5.04
2019-03-10T23:42:03.023Z,5.16
2019-03-10T23:48:08.716Z,5.20
2019-03-10T23:54:14.580Z,5.23
